• Join FlightAware (Why Join?)
  • Login
  • US Flag 
07:51AM EST


 

Airport Tracker/Info


-or-


 

Live Flight TrackerFlight Track Log ✈ CSN6525 ✈ 29-Aug-2014 ✈ ZYTL / DLC - ZSPD / PVG

Flight Track Log - Related Links

Times and Time Zones

All times are in EDT time to prevent confusion due to time zone crossing. See the CSN6525 flight status page for this flight to view local times or setup timezone preferences in your user account.

Time Position Orientation Groundspeed Altitude Reporting Facility
EDT Latitude Longitude Course Direction KTS MPH feet Rate Location/Type
06:21AM 38.8667 121.5421 178° South  Level Estimated
06:22AM 38.7677 121.5457 178° South  Level Estimated
06:23AM 38.6688 121.5492 178° South  Level Estimated
06:24AM 38.5698 121.5527 178° South  Level Estimated
06:25AM 38.4708 121.5562 178° South  Level Estimated
06:26AM 38.3718 121.5597 178° South  Level Estimated
06:27AM 38.2776 121.5630 178° South  Level Estimated
06:28AM 38.1834 121.5663 178° South  Level Estimated
06:29AM 38.0892 121.5696 178° South  Level Estimated
06:30AM 37.9950 121.5729 178° South  Level Estimated
06:31AM 37.9008 121.5762 178° South  Level Estimated
06:32AM 37.8066 121.5795 178° South  Level Estimated
06:33AM 37.7124 121.5827 178° South  Level Estimated
06:34AM 37.6182 121.5860 178° South  Level Estimated
06:35AM 37.5240 121.5892 178° South  Level Estimated
06:36AM 37.4298 121.5925 178° South  Level Estimated
06:37AM 37.3356 121.5957 178° South  Level Estimated
06:38AM 37.2414 121.5989 178° South  Level Estimated
06:39AM 37.1472 121.6021 178° South  Level Estimated
06:40AM 37.0530 121.6053 178° South  Level Estimated
06:41AM 36.9588 121.6085 178° South  Level Estimated
06:42AM 36.8646 121.6117 178° South  Level Estimated
06:43AM 36.7704 121.6149 178° South  Level Estimated
06:44AM 36.6762 121.6181 178° South  Level Estimated
06:45AM 36.5820 121.6212 178° South  Level Estimated
06:46AM 36.4878 121.6244 178° South  Level Estimated
06:47AM 36.3936 121.6276 178° South  Level Estimated
06:48AM 36.2994 121.6307 178° South  Level Estimated
06:49AM 36.2052 121.6338 178° South  Level Estimated
06:50AM 36.1110 121.6370 178° South  Level Estimated
06:51AM 36.0168 121.6401 178° South  Level Estimated
06:52AM 35.9226 121.6432 178° South  Level Estimated
06:53AM 35.8284 121.6463 178° South  Level Estimated
06:54AM 35.7342 121.6494 178° South  Level Estimated
06:55AM 35.6400 121.6525 178° South  Level Estimated
06:56AM 35.5458 121.6556 178° South  Level Estimated
06:57AM 35.4516 121.6587 178° South  Level Estimated
06:58AM 35.3574 121.6617 178° South  Level Estimated
06:59AM 35.2632 121.6648 178° South  Level Estimated
07:00AM 35.1690 121.6679 178° South  Level Estimated
07:01AM 35.0748 121.6709 178° South  Level Estimated
07:02AM 34.9806 121.6740 178° South  Level Estimated
07:03AM 34.8864 121.6770 178° South  Level Estimated
07:04AM 34.7922 121.6800 178° South  Level Estimated
07:05AM 34.6980 121.6830 178° South  Level Estimated
07:06AM 34.6038 121.6861 178° South  Level Estimated
07:07AM 34.5096 121.6891 178° South  Level Estimated
07:08AM 34.4154 121.6921 178° South  Level Estimated
07:09AM 34.3212 121.6951 178° South  Level Estimated
07:10AM 34.2270 121.6980 178° South  Level Estimated
07:11AM 34.1328 121.7010 178° South  Level Estimated
07:12AM 34.0386 121.7040 179° South  Level Estimated
07:13AM 33.9443 121.7070 179° South  Level Estimated
07:14AM 33.8501 121.7099 179° South  Level Estimated
07:15AM 33.7559 121.7129 179° South  Level Estimated
07:16AM 33.6617 121.7158 179° South  Level Estimated
07:17AM 33.5675 121.7188 179° South  Level Estimated
07:18AM 33.4733 121.7217 179° South  Level Estimated
07:19AM 33.3791 121.7246 179° South  Level Estimated
07:20AM 33.2849 121.7275 179° South  Level Estimated
07:21AM 33.1907 121.7305 179° South  Level Estimated
07:22AM 33.0965 121.7334 179° South  Level Estimated
07:23AM 33.0023 121.7363 179° South  Level Estimated
07:24AM 32.9081 121.7392 179° South  Level Estimated
07:25AM 32.8139 121.7421 179° South  Level Estimated
07:26AM 32.7197 121.7449 179° South  Level Estimated
07:27AM 32.6255 121.7478 179° South  Level Estimated
07:28AM 32.5313 121.7507 179° South  Level Estimated
07:29AM 32.4371 121.7536 179° South  Level Estimated
07:30AM 32.3429 121.7564 179° South  Level Estimated
07:31AM 32.2487 121.7593 179° South  Level Estimated
07:32AM 32.1544 121.7621 179° South  Level Estimated
07:33AM 32.0602 121.7650 179° South  Level Estimated
07:34AM 31.9660 121.7678 179° South  Level Estimated
07:35AM 31.8718 121.7707 179° South  Level Estimated
07:36AM 31.7776 121.7735 179° South  Level Estimated
07:37AM 31.6834 121.7763 179° South  Level Estimated
07:38AM 31.5892 121.7791 179° South  Level Estimated
07:39AM 31.4950 121.7819 179° South  Level Estimated
07:40AM 31.4008 121.7847 179° South  Level Estimated
07:41AM 31.3066 121.7875 179° South  Level Estimated
07:42AM 31.2124 121.7903 179° South  Level Estimated
07:43AM 31.1428 121.7924 179° South  Level Estimated
07:44AM 31.1428 121.7924 North  Level Estimated
07:45AM 31.1428 121.7924 North  Level Estimated
07:46AM 31.1428 121.7924 North  Level Estimated
07:47AM 31.1428 121.7924 North  Level Estimated
07:48AM 31.1428 121.7924 North  Level Estimated
07:49AM 31.1428 121.7924 North  Level Estimated
07:50AM 31.1428 121.7924 North  Level Estimated
07:51AM 31.1428 121.7924 North  Level Estimated
07:52AM 31.1428 121.7924 North  Level Estimated
07:53AM 31.1428 121.7924 North  Level Estimated
07:54AM 31.1428 121.7924 North  Level Estimated
07:55AM 31.1428 121.7924 North  Level Estimated
07:56AM 31.1428 121.7924 North  Level Estimated
07:57AM 31.1428 121.7924 North  Level Estimated
07:58AM 31.1428 121.7924 North  Level Estimated